Time;durP1;ratioP1;P1;durP2;ratioP2;P2;SDS_P1;SDS_P2;PMS_P1;PMS_P2;Temp;Humidity;BMP_temperature;BMP_pressure;BME280_temperature;BME280_humidity;BME280_pressure;Samples;Min_cycle;Max_cycle;Signal;HPM_P1;HPM_P2
2023/02/22 00:00:18;;;;;;;1.50;0.98;;;;;;;12.10;44.78;101197.75;5012944;28;20037;-88
2023/02/22 00:02:45;;;;;;;1.40;1.10;;;;;;;11.99;45.17;101186.09;4997544;28;20061;-89
2023/02/22 00:05:14;;;;;;;1.83;1.30;;;;;;;12.13;45.31;101206.22;5013120;28;20409;-88
2023/02/22 00:07:39;;;;;;;2.10;1.70;;;;;;;12.00;45.42;101186.97;5029152;28;20542;-89
2023/02/22 00:10:12;;;;;;;2.05;1.30;;;;;;;12.10;45.42;101211.56;5013072;28;20080;-89
2023/02/22 00:12:42;;;;;;;4.28;1.25;;;;;;;12.07;45.85;101212.50;4997132;28;20050;-88
2023/02/22 00:15:08;;;;;;;4.30;1.05;;;;;;;12.14;45.67;101212.25;5012732;28;20073;-88
2023/02/22 00:17:34;;;;;;;1.10;0.73;;;;;;;12.20;45.84;101205.03;5012635;28;20091;-88
2023/02/22 00:20:00;;;;;;;1.95;1.20;;;;;;;12.21;45.78;101204.13;5012745;28;20030;-89
2023/02/22 00:22:25;;;;;;;2.15;1.63;;;;;;;12.20;45.82;101191.22;4996362;28;20037;-88
2023/02/22 00:24:51;;;;;;;8.23;1.15;;;;;;;12.35;45.54;101199.09;4996311;28;20508;-88
2023/02/22 00:27:16;;;;;;;2.30;1.23;;;;;;;12.46;45.18;101195.16;5012353;28;20041;-89
2023/02/22 00:29:45;;;;;;;2.83;1.10;;;;;;;12.58;45.15;101205.78;5012487;28;20096;-88
2023/02/22 00:32:11;;;;;;;1.55;1.00;;;;;;;12.59;44.80;101193.69;4996118;28;20091;-89
2023/02/22 00:34:36;;;;;;;1.33;0.80;;;;;;;12.62;44.68;101186.56;4996266;28;20026;-87
2023/02/22 00:37:03;;;;;;;2.08;1.02;;;;;;;12.75;44.38;101202.38;5012527;28;20581;-89
2023/02/22 00:39:29;;;;;;;1.55;1.08;;;;;;;12.78;44.38;101193.59;5012194;28;20417;-88
2023/02/22 00:41:55;;;;;;;1.33;0.95;;;;;;;12.72;44.19;101199.94;4995680;28;20038;-89
2023/02/22 00:44:20;;;;;;;2.30;1.25;;;;;;;12.68;43.87;101194.97;5029109;28;20030;-88
2023/02/22 00:46:46;;;;;;;2.58;1.42;;;;;;;12.41;43.96;101142.66;5012331;28;20038;-88
2023/02/22 00:49:11;;;;;;;2.30;0.80;;;;;;;12.72;43.54;101183.53;5011711;28;20113;-88
2023/02/22 00:51:37;;;;;;;1.02;0.65;;;;;;;12.76;43.80;101185.88;5012279;28;20053;-88
2023/02/22 00:54:04;;;;;;;2.47;1.15;;;;;;;12.62;43.63;101180.53;5012304;28;20030;-88
2023/02/22 00:56:31;;;;;;;1.92;1.10;;;;;;;12.53;43.88;101161.06;5012124;28;20104;-88
2023/02/22 00:58:56;;;;;;;1.55;0.98;;;;;;;12.53;43.54;101157.63;5011887;28;20077;-88
2023/02/22 01:01:22;;;;;;;3.53;1.67;;;;;;;12.52;43.69;101185.34;5012004;28;20035;-88
2023/02/22 01:03:48;;;;;;;3.17;0.95;;;;;;;12.31;43.81;101156.06;4996001;28;20397;-86
2023/02/22 01:06:14;;;;;;;2.60;1.20;;;;;;;12.32;44.00;101170.72;5011968;28;20030;-85
2023/02/22 01:08:43;;;;;;;2.30;1.25;;;;;;;12.34;44.36;101187.03;5011707;28;20041;-88
2023/02/22 01:11:09;;;;;;;2.05;0.95;;;;;;;12.22;44.21;101166.88;4995293;28;20022;-88
2023/02/22 01:13:34;;;;;;;2.58;1.45;;;;;;;12.22;44.25;101182.44;5011724;28;20472;-88
2023/02/22 01:16:00;;;;;;;2.15;1.13;;;;;;;12.18;44.81;101174.84;5011736;28;20489;-88
2023/02/22 01:18:25;;;;;;;1.40;1.10;;;;;;;12.07;44.67;101162.41;5011787;28;20026;-88
2023/02/22 01:20:51;;;;;;;2.28;1.10;;;;;;;12.04;44.92;101172.91;5028050;28;20485;-88
2023/02/22 01:23:16;;;;;;;1.58;1.02;;;;;;;11.94;45.10;101166.47;5011514;28;20033;-88
2023/02/22 01:25:42;;;;;;;1.42;1.13;;;;;;;11.88;45.03;101156.38;5011113;28;20037;-88
2023/02/22 01:28:07;;;;;;;2.28;1.30;;;;;;;11.83;45.57;101158.34;5011463;28;20045;-88
2023/02/22 01:30:34;;;;;;;2.45;0.80;;;;;;;11.80;45.55;101153.28;5011430;28;20065;-88
2023/02/22 01:33:00;;;;;;;1.65;1.20;;;;;;;11.96;45.77;101175.03;5011578;28;20052;-88
2023/02/22 01:35:28;;;;;;;0.80;0.70;;;;;;;11.93;45.67;101173.41;5011478;28;20105;-88
2023/02/22 01:37:54;;;;;;;1.13;0.70;;;;;;;11.97;45.50;101176.69;5011368;28;20472;-88
2023/02/22 01:40:40;;;;;;;2.72;1.77;;;;;;;11.98;46.12;101175.78;5010864;28;20045;-88
2023/02/22 01:43:26;;;;;;;1.55;0.85;;;;;;;11.94;46.59;101175.09;5011392;28;20030;-88
2023/02/22 01:45:53;;;;;;;2.13;1.48;;;;;;;11.91;46.24;101172.66;5010890;28;20452;-88
2023/02/22 01:48:24;;;;;;;1.33;1.17;;;;;;;11.95;46.35;101169.00;5027661;28;20025;-88
2023/02/22 01:51:13;;;;;;;3.08;1.40;;;;;;;11.94;46.54;101176.84;5012030;28;20113;-88
2023/02/22 01:53:49;;;;;;;2.08;1.35;;;;;;;11.81;46.70;101152.41;5027593;28;20034;-88
2023/02/22 01:56:15;;;;;;;2.05;1.10;;;;;;;11.65;47.15;101123.72;5027030;28;20029;-88
2023/02/22 01:58:43;;;;;;;2.50;1.88;;;;;;;11.85;46.83;101148.75;5011028;28;20065;-89
2023/02/22 02:01:09;;;;;;;2.15;1.45;;;;;;;11.91;46.80;101144.13;5009988;28;20026;-88
2023/02/22 02:03:35;;;;;;;1.25;1.00;;;;;;;11.95;47.08;101156.03;5010824;28;20036;-88
2023/02/22 02:06:03;;;;;;;2.72;1.70;;;;;;;12.03;47.21;101156.53;5010928;28;20029;-88
2023/02/22 02:08:48;;;;;;;2.05;1.40;;;;;;;12.11;46.93;101156.19;4994292;28;20485;-91
2023/02/22 02:11:15;;;;;;;2.38;1.92;;;;;;;12.06;47.44;101152.94;5010658;28;20413;-88
2023/02/22 02:13:40;;;;;;;1.85;1.33;;;;;;;12.00;47.39;101143.72;5010821;28;20116;-88
2023/02/22 02:16:06;;;;;;;1.98;1.70;;;;;;;12.02;47.56;101164.38;5011006;28;20029;-88
2023/02/22 02:18:31;;;;;;;2.47;1.35;;;;;;;12.01;47.19;101153.16;5010397;28;20041;-88
2023/02/22 02:21:35;;;;;;;2.13;1.38;;;;;;;12.05;47.32;101164.22;5010563;28;20038;-88
2023/02/22 02:24:07;;;;;;;2.53;1.65;;;;;;;12.02;47.60;101169.56;5010166;28;20113;-88
2023/02/22 02:26:38;;;;;;;1.95;1.17;;;;;;;11.77;47.87;101134.34;5010488;28;20030;-88
2023/02/22 02:29:09;;;;;;;2.13;1.80;;;;;;;11.83;47.52;101153.16;5026653;28;20060;-88
2023/02/22 02:32:06;;;;;;;1.58;0.98;;;;;;;11.84;47.90;101168.66;5011388;28;20026;-88
2023/02/22 02:35:20;;;;;;;3.83;1.25;;;;;;;11.71;48.09;101170.94;5011363;28;20041;-88
2023/02/22 02:37:51;;;;;;;2.13;1.40;;;;;;;11.61;48.61;101182.63;4941361;28;20150;-87
2023/02/22 02:40:25;;;;;;;1.23;1.00;;;;;;;11.57;48.74;101178.47;5011446;28;20072;-85
2023/02/22 02:42:59;;;;;;;2.72;1.52;;;;;;;11.20;49.21;101143.78;5009952;28;20026;-85
2023/02/22 02:45:47;;;;;;;3.53;2.25;;;;;;;11.32;49.34;101188.22;5026287;28;20025;-85
2023/02/22 02:48:13;;;;;;;2.00;1.58;;;;;;;11.18;49.81;101178.44;4993709;28;20382;-86
2023/02/22 02:50:46;;;;;;;2.10;1.67;;;;;;;11.03;50.07;101167.00;5010156;28;20496;-85
2023/02/22 02:53:12;;;;;;;4.03;2.83;;;;;;;11.03;50.17;101182.53;5009504;28;20069;-85
2023/02/22 02:55:38;;;;;;;2.75;1.58;;;;;;;10.98;50.46;101189.63;5010155;28;20018;-88
2023/02/22 02:58:04;;;;;;;2.75;1.48;;;;;;;10.79;50.20;101168.84;5009745;28;20030;-88
2023/02/22 03:00:37;;;;;;;2.85;1.30;;;;;;;10.60;50.44;101158.41;5010297;28;20041;-88
2023/02/22 03:03:55;;;;;;;2.88;1.27;;;;;;;10.63;50.41;101173.81;4994392;28;20060;-87
2023/02/22 03:06:43;;;;;;;1.77;1.20;;;;;;;10.53;51.00;101187.19;4961195;28;20433;-88
2023/02/22 03:09:34;;;;;;;1.60;1.08;;;;;;;10.48;51.25;101184.78;5009791;28;20026;-88
2023/02/22 03:12:08;;;;;;;6.28;1.80;;;;;;;10.39;51.53;101187.72;5011093;28;20128;-85
2023/02/22 03:14:57;;;;;;;2.55;1.63;;;;;;;10.41;51.50;101193.66;5010986;28;20022;-85
2023/02/22 03:17:35;;;;;;;1.70;1.45;;;;;;;10.42;51.30;101189.34;5026075;28;20030;-85
2023/02/22 03:20:05;;;;;;;2.08;1.50;;;;;;;10.25;51.48;101161.56;5025022;28;20030;-85
2023/02/22 03:22:35;;;;;;;1.90;1.10;;;;;;;10.42;51.81;101190.22;5009391;28;20033;-86
2023/02/22 03:25:06;;;;;;;2.90;1.50;;;;;;;10.46;51.63;101196.09;5009646;28;20060;-86
2023/02/22 03:27:42;;;;;;;24.67;2.17;;;;;;;10.40;51.47;101175.63;4993500;28;20030;-85
2023/02/22 03:30:11;;;;;;;1.58;1.10;;;;;;;10.44;51.72;101183.22;4993467;28;20073;-86
2023/02/22 03:32:37;;;;;;;2.20;1.77;;;;;;;10.54;51.46;101205.22;4993190;28;20036;-85
2023/02/22 03:35:16;;;;;;;3.50;1.52;;;;;;;10.46;51.52;101196.94;4993124;28;20516;-86
2023/02/22 03:37:44;;;;;;;1.85;1.35;;;;;;;10.44;51.70;101198.75;5009141;28;20405;-85
2023/02/22 03:40:13;;;;;;;2.80;1.60;;;;;;;10.28;51.96;101187.28;4993144;28;20061;-86
2023/02/22 03:42:39;;;;;;;1.73;1.30;;;;;;;10.16;52.09;101167.91;5009279;28;20507;-85
2023/02/22 03:45:05;;;;;;;2.63;1.42;;;;;;;9.95;52.37;101148.88;5009235;28;20086;-85
2023/02/22 03:47:41;;;;;;;2.53;1.58;;;;;;;10.33;52.39;101206.06;5009476;28;20038;-85
2023/02/22 03:50:10;;;;;;;2.17;1.52;;;;;;;10.29;52.72;101217.41;4993228;28;20028;-86
2023/02/22 03:52:35;;;;;;;1.35;0.85;;;;;;;10.21;52.70;101215.09;5009301;28;20033;-88
2023/02/22 03:55:01;;;;;;;2.95;1.58;;;;;;;10.01;52.79;101184.81;5009211;28;20033;-87
2023/02/22 03:57:34;;;;;;;1.92;1.17;;;;;;;10.08;52.98;101206.13;4993043;28;20091;-87
2023/02/22 03:59:59;;;;;;;4.25;1.42;;;;;;;10.09;53.28;101222.47;5009331;28;20030;-88
2023/02/22 04:02:25;;;;;;;2.15;1.55;;;;;;;9.91;53.16;101196.41;4992946;28;20026;-84
2023/02/22 04:04:50;;;;;;;2.38;1.83;;;;;;;9.86;53.33;101198.31;5008934;28;20034;-83
2023/02/22 04:07:16;;;;;;;3.45;1.55;;;;;;;9.77;53.55;101188.31;5009409;28;20531;-83
2023/02/22 04:09:41;;;;;;;2.78;1.63;;;;;;;9.84;53.94;101210.47;5009193;28;20026;-83
2023/02/22 04:12:07;;;;;;;6.38;1.50;;;;;;;9.78;54.37;101208.09;5008944;28;20092;-83
2023/02/22 04:14:32;;;;;;;4.32;1.98;;;;;;;9.80;54.28;101198.53;5009222;28;20026;-83
2023/02/22 04:16:58;;;;;;;2.97;1.20;;;;;;;9.69;54.25;101185.19;5009221;28;20033;-83
2023/02/22 04:19:24;;;;;;;3.03;1.92;;;;;;;9.91;54.22;101224.00;5008928;28;20113;-83
2023/02/22 04:21:49;;;;;;;4.10;1.88;;;;;;;9.92;54.00;101215.34;5008864;28;20509;-83
2023/02/22 04:24:15;;;;;;;4.80;2.30;;;;;;;9.87;54.11;101217.25;5010831;28;20068;-83
2023/02/22 04:26:40;;;;;;;3.92;2.15;;;;;;;9.97;53.78;101209.09;5012762;28;20053;-84
2023/02/22 04:29:07;;;;;;;3.28;2.78;;;;;;;9.96;54.14;101222.09;4995938;28;20049;-84
2023/02/22 04:31:32;;;;;;;6.18;2.85;;;;;;;10.06;54.07;101234.63;5010573;28;20033;-85
2023/02/22 04:33:58;;;;;;;6.82;2.88;;;;;;;9.94;53.91;101203.22;5012195;28;20417;-86
2023/02/22 04:36:25;;;;;;;6.00;3.40;;;;;;;10.10;53.82;101224.16;5012344;28;20030;-85
2023/02/22 04:38:51;;;;;;;5.53;2.92;;;;;;;10.11;53.56;101225.84;5012635;28;20034;-85
2023/02/22 04:41:17;;;;;;;5.22;3.00;;;;;;;10.14;53.49;101220.56;5012372;28;20076;-92
2023/02/22 04:43:43;;;;;;;8.52;3.35;;;;;;;10.13;53.22;101219.72;5013209;28;20516;-93
2023/02/22 04:46:08;;;;;;;4.65;2.75;;;;;;;10.09;53.28;101225.91;5013205;28;20061;-93
2023/02/22 04:48:34;;;;;;;3.97;2.30;;;;;;;10.14;53.50;101238.66;5012857;28;20056;-93
2023/02/22 04:50:59;;;;;;;4.78;3.20;;;;;;;10.05;53.47;101237.28;4996852;28;20046;-93
2023/02/22 04:53:25;;;;;;;5.50;3.03;;;;;;;9.96;53.70;101222.94;4996849;28;20500;-93
2023/02/22 04:55:51;;;;;;;4.05;2.97;;;;;;;9.99;53.88;101217.66;5012920;28;20535;-94
2023/02/22 04:58:16;;;;;;;5.20;2.83;;;;;;;10.11;53.75;101236.19;4996763;28;20056;-90
2023/02/22 05:00:42;;;;;;;3.30;2.78;;;;;;;9.90;53.67;101217.97;5011794;28;20493;-88
2023/02/22 05:03:07;;;;;;;4.70;2.63;;;;;;;9.98;54.00;101230.63;5010398;28;20040;-89
2023/02/22 05:05:33;;;;;;;4.13;2.38;;;;;;;10.07;53.97;101236.31;5011806;28;20493;-90
2023/02/22 05:07:58;;;;;;;4.47;2.08;;;;;;;9.82;54.17;101204.50;5012742;28;20038;-89
2023/02/22 05:10:24;;;;;;;3.38;1.92;;;;;;;9.96;53.91;101228.09;5033916;28;20420;-91
2023/02/22 05:12:50;;;;;;;13.85;3.70;;;;;;;9.88;54.14;101214.63;5031503;28;20032;-88
2023/02/22 05:15:17;;;;;;;3.25;2.25;;;;;;;10.08;53.95;101242.31;5031768;28;20041;-85
2023/02/22 05:17:43;;;;;;;3.03;1.55;;;;;;;10.03;53.70;101234.75;5029587;28;20025;-91
2023/02/22 05:20:11;;;;;;;2.80;2.13;;;;;;;10.05;53.98;101243.28;5049518;28;20081;-96
2023/02/22 05:22:36;;;;;;;4.43;2.50;;;;;;;10.00;53.96;101252.94;5011660;28;20030;-96
2023/02/22 05:25:02;;;;;;;2.42;1.85;;;;;;;9.96;54.06;101238.44;5035252;28;20079;-88
2023/02/22 05:27:27;;;;;;;5.50;4.13;;;;;;;10.03;53.96;101252.00;4995443;28;20029;-94
2023/02/22 05:29:53;;;;;;;4.35;2.45;;;;;;;9.89;53.91;101231.81;5035328;28;20029;-90
2023/02/22 05:32:18;;;;;;;3.28;2.25;;;;;;;10.01;53.87;101262.38;5034433;28;20505;-95
2023/02/22 05:34:44;;;;;;;14.30;2.20;;;;;;;9.99;53.80;101259.00;5042259;28;20072;-89
2023/02/22 05:37:09;;;;;;;2.47;1.88;;;;;;;9.93;53.93;101254.06;5026865;28;20030;-90
2023/02/22 05:39:35;;;;;;;3.33;1.98;;;;;;;9.94;53.95;101258.34;5047929;28;20514;-95
2023/02/22 05:42:00;;;;;;;5.32;2.30;;;;;;;9.91;54.06;101261.00;5050224;28;20021;-94
2023/02/22 05:44:26;;;;;;;3.17;2.25;;;;;;;9.73;54.34;101235.81;5018583;28;20037;-96
2023/02/22 05:46:52;;;;;;;7.30;4.30;;;;;;;9.89;54.13;101260.22;5018646;28;20396;-91
2023/02/22 05:49:17;;;;;;;2.70;1.98;;;;;;;9.96;53.88;101269.47;5023058;28;20017;-87
2023/02/22 05:51:43;;;;;;;5.93;2.13;;;;;;;9.97;54.17;101288.41;5027974;28;20428;-88
2023/02/22 05:54:08;;;;;;;1.55;1.35;;;;;;;9.92;54.10;101279.94;5008576;28;20022;-91
2023/02/22 05:56:35;;;;;;;5.10;1.90;;;;;;;10.05;53.93;101279.47;5012859;28;20522;-95
2023/02/22 05:59:00;;;;;;;5.43;2.25;;;;;;;10.10;53.95;101286.19;4997386;28;20021;-83
2023/02/22 06:01:26;;;;;;;2.70;1.73;;;;;;;10.20;53.93;101292.72;5030374;28;20083;-79
2023/02/22 06:03:51;;;;;;;2.05;1.50;;;;;;;10.26;53.19;101282.19;5023807;28;20508;-90
2023/02/22 06:06:18;;;;;;;2.13;1.75;;;;;;;10.34;53.52;101291.38;5044491;28;20129;-91
2023/02/22 06:08:44;;;;;;;2.83;2.15;;;;;;;10.32;53.69;101289.72;5028660;28;20489;-87
2023/02/22 06:11:09;;;;;;;2.17;1.60;;;;;;;10.43;53.30;101295.34;5042825;28;20036;-93
2023/02/22 06:13:35;;;;;;;3.42;1.95;;;;;;;10.48;52.86;101298.59;5042493;28;20390;-90
2023/02/22 06:16:01;;;;;;;2.25;1.60;;;;;;;10.31;52.93;101275.09;5021591;28;20035;-82
2023/02/22 06:18:29;;;;;;;3.60;2.08;;;;;;;10.95;56.27;101288.16;5029750;28;20034;-83
2023/02/22 06:20:55;;;;;;;2.17;1.38;;;;;;;12.19;48.96;101314.00;5028476;28;20029;-95
2023/02/22 06:23:20;;;;;;;3.05;1.63;;;;;;;11.51;50.11;101297.09;5050899;28;21343;-91
2023/02/22 06:25:45;;;;;;;2.60;1.63;;;;;;;11.36;52.66;101309.78;5039137;28;20033;-91
2023/02/22 06:28:11;;;;;;;3.10;1.75;;;;;;;11.33;51.52;101317.69;5023238;28;20100;-91
2023/02/22 06:30:36;;;;;;;4.05;1.50;;;;;;;11.31;50.82;101306.53;5035491;28;20030;-90
2023/02/22 06:33:02;;;;;;;2.17;1.30;;;;;;;11.31;50.68;101311.72;5038427;28;20504;-93
2023/02/22 06:35:27;;;;;;;1.85;1.55;;;;;;;11.28;50.76;101317.00;5028299;28;20114;-91
2023/02/22 06:37:53;;;;;;;2.83;2.35;;;;;;;11.32;50.70;101317.75;5012238;28;20481;-89
2023/02/22 06:40:18;;;;;;;4.13;2.03;;;;;;;11.37;50.70;101321.81;5037790;28;20030;-89
2023/02/22 06:42:46;;;;;;;3.63;1.75;;;;;;;11.36;51.00;101338.28;5027858;28;20060;-90
2023/02/22 06:45:11;;;;;;;6.80;3.00;;;;;;;11.56;50.64;101332.25;5041779;28;20627;-91
2023/02/22 06:47:39;;;;;;;3.45;2.38;;;;;;;11.54;50.62;101322.88;5033721;28;20030;-93
2023/02/22 06:50:04;;;;;;;4.25;2.65;;;;;;;11.57;50.50;101331.34;4999714;28;20100;-83
2023/02/22 06:52:30;;;;;;;3.00;2.05;;;;;;;11.46;50.76;101321.44;5045595;28;20444;-83
2023/02/22 06:54:55;;;;;;;2.83;2.10;;;;;;;11.55;50.50;101333.19;5030061;28;20087;-94
2023/02/22 06:57:21;;;;;;;4.72;3.28;;;;;;;11.59;52.01;101324.34;5034745;28;20034;-83
2023/02/22 06:59:46;;;;;;;2.65;1.65;;;;;;;11.73;50.41;101340.19;5013947;28;20030;-84
2023/02/22 07:02:12;;;;;;;5.45;3.10;;;;;;;11.74;50.46;101331.50;5010125;28;20080;-88
2023/02/22 07:04:38;;;;;;;2.55;1.45;;;;;;;11.91;50.69;101335.16;5036664;28;20038;-82
2023/02/22 07:07:04;;;;;;;2.33;1.55;;;;;;;11.90;50.40;101343.84;5040474;28;20033;-90
2023/02/22 07:09:29;;;;;;;1.88;1.52;;;;;;;11.93;50.28;101325.56;5036952;28;20041;-85
2023/02/22 07:11:55;;;;;;;3.05;1.90;;;;;;;12.06;50.22;101342.25;5019229;28;20026;-90
2023/02/22 07:14:20;;;;;;;2.65;1.60;;;;;;;12.11;49.91;101336.88;5041862;28;20125;-92
2023/02/22 07:16:46;;;;;;;2.42;1.63;;;;;;;12.29;50.42;101333.44;5013207;28;20030;-82
2023/02/22 07:19:11;;;;;;;3.97;1.95;;;;;;;12.31;49.88;101332.50;5027762;28;20464;-95
2023/02/22 07:21:37;;;;;;;2.63;1.88;;;;;;;12.52;49.48;101330.69;5024391;28;20041;-89
2023/02/22 07:24:02;;;;;;;2.85;1.77;;;;;;;12.42;49.21;101293.09;5014266;28;20520;-85
2023/02/22 07:26:27;;;;;;;2.53;1.85;;;;;;;12.70;48.84;101316.00;5010613;28;20041;-93
2023/02/22 07:28:53;;;;;;;1.77;1.45;;;;;;;12.79;48.51;101325.97;5037349;28;20053;-89
2023/02/22 07:31:18;;;;;;;4.45;1.65;;;;;;;12.75;48.31;101290.66;5022297;28;21034;-79
2023/02/22 07:33:47;;;;;;;1.73;1.33;;;;;;;13.02;48.36;101313.63;5031901;28;20449;-79
2023/02/22 07:36:16;;;;;;;2.05;1.63;;;;;;;13.18;48.64;101315.44;5043221;28;20022;-95
2023/02/22 07:38:43;;;;;;;2.55;1.40;;;;;;;13.30;48.07;101319.22;5041432;28;20029;-87
2023/02/22 07:41:09;;;;;;;2.42;1.73;;;;;;;13.41;47.59;101316.91;5022199;28;20083;-87
2023/02/22 07:43:34;;;;;;;2.10;1.55;;;;;;;13.60;47.09;101321.19;5025711;28;20029;-86
2023/02/22 07:46:01;;;;;;;2.88;1.55;;;;;;;13.71;47.19;101324.09;5020401;28;20091;-85
2023/02/22 07:48:27;;;;;;;2.08;1.30;;;;;;;13.79;47.13;101311.53;5042021;28;20045;-89
2023/02/22 07:50:53;;;;;;;1.48;1.38;;;;;;;13.97;46.86;101315.81;5027677;28;20041;-95
2023/02/22 07:53:23;;;;;;;3.35;1.55;;;;;;;14.12;46.66;101313.31;5026127;28;20037;-89
2023/02/22 07:55:49;;;;;;;1.85;1.17;;;;;;;14.27;46.08;101315.94;5010916;28;20034;-94
2023/02/22 07:58:16;;;;;;;1.73;1.15;;;;;;;14.40;46.40;101308.31;5004218;28;20026;-85
2023/02/22 08:00:42;;;;;;;2.05;1.30;;;;;;;14.52;45.45;101307.66;5016174;28;20025;-81
2023/02/22 08:03:10;;;;;;;8.85;1.38;;;;;;;14.60;45.40;101299.44;5044650;28;20106;-92
2023/02/22 08:05:36;;;;;;;1.67;1.00;;;;;;;14.76;44.84;101292.47;5018111;28;20875;-87
2023/02/22 08:08:02;;;;;;;2.25;1.30;;;;;;;15.02;44.47;101303.19;5038316;28;20064;-94
2023/02/22 08:10:28;;;;;;;5.82;1.48;;;;;;;15.10;43.57;101308.81;5015278;28;20038;-85
2023/02/22 08:12:54;;;;;;;2.55;1.50;;;;;;;15.19;43.01;101301.28;5041732;28;20108;-83
2023/02/22 08:15:39;;;;;;;1.58;1.17;;;;;;;15.30;42.75;101305.88;5015337;28;20038;-92
2023/02/22 08:18:07;;;;;;;1.25;0.85;;;;;;;15.35;42.72;101300.44;5001441;28;20030;-88
2023/02/22 08:20:33;;;;;;;1.42;1.23;;;;;;;15.44;43.44;101307.72;5027551;28;20026;-82
2023/02/22 08:22:59;;;;;;;1.42;1.10;;;;;;;15.51;42.44;101298.59;5031706;28;20064;-92
2023/02/22 08:25:25;;;;;;;2.40;1.60;;;;;;;15.63;42.71;101307.47;5040996;28;20034;-82
2023/02/22 08:27:51;;;;;;;4.28;1.50;;;;;;;15.62;41.91;101288.38;5037025;28;20041;-82
2023/02/22 08:30:19;;;;;;;2.58;1.55;;;;;;;15.76;41.83;101303.22;5036569;28;20400;-83
2023/02/22 08:32:45;;;;;;;3.65;2.10;;;;;;;15.57;42.63;101266.94;5012657;28;20022;-94
2023/02/22 08:35:12;;;;;;;2.78;1.52;;;;;;;15.81;41.93;101305.56;5029418;28;20112;-95
2023/02/22 08:37:44;;;;;;;1.88;1.20;;;;;;;15.80;41.70;101289.06;5045403;28;20033;-92
2023/02/22 08:40:10;;;;;;;1.75;0.82;;;;;;;15.89;41.62;101285.91;5021581;28;20055;-93
2023/02/22 08:42:35;;;;;;;2.33;1.27;;;;;;;16.00;41.52;101286.06;5023427;28;20093;-96
2023/02/22 08:45:00;;;;;;;2.33;1.40;;;;;;;16.18;41.71;101286.72;5020592;28;20037;-95
2023/02/22 08:47:26;;;;;;;5.70;2.00;;;;;;;16.32;41.17;101291.94;5044276;28;20041;-88
2023/02/22 08:49:51;;;;;;;3.00;1.50;;;;;;;16.38;40.57;101287.25;5044333;28;20465;-79
2023/02/22 08:52:18;;;;;;;1.50;0.85;;;;;;;16.38;40.22;101263.75;5008906;28;20068;-83
2023/02/22 08:54:44;;;;;;;3.33;1.60;;;;;;;16.60;40.47;101283.19;5039584;28;20032;-84
2023/02/22 08:57:09;;;;;;;5.53;1.10;;;;;;;16.60;39.87;101282.34;5032024;28;20030;-94
2023/02/22 08:59:36;;;;;;;1.92;1.10;;;;;;;16.57;39.87;101279.94;5042917;28;20034;-93
2023/02/22 09:02:01;;;;;;;1.42;1.05;;;;;;;16.64;40.17;101286.47;5032848;28;20021;-84
2023/02/22 09:04:27;;;;;;;2.40;1.20;;;;;;;16.59;39.56;101262.38;5010463;28;20033;-85
2023/02/22 09:06:52;;;;;;;2.78;1.45;;;;;;;16.78;40.36;101281.22;5013799;28;20432;-95
2023/02/22 09:09:20;;;;;;;1.60;0.98;;;;;;;16.89;39.91;101283.97;5031757;28;20022;-96
2023/02/22 09:11:46;;;;;;;1.75;1.10;;;;;;;16.89;39.37;101270.06;5052011;28;20036;-93
2023/02/22 09:14:13;;;;;;;2.00;1.38;;;;;;;17.07;39.72;101283.72;5035858;28;21072;-96
2023/02/22 09:16:39;;;;;;;1.17;1.02;;;;;;;16.82;39.10;101230.44;5024478;28;20035;-90
2023/02/22 09:19:05;;;;;;;3.65;1.30;;;;;;;17.25;38.95;101287.72;5040074;28;20040;-92
2023/02/22 09:21:30;;;;;;;1.45;1.00;;;;;;;17.32;38.68;101277.72;5043610;28;20104;-95
2023/02/22 09:23:56;;;;;;;1.00;0.70;;;;;;;17.35;38.87;101288.78;5040047;28;20524;-85
2023/02/22 09:26:22;;;;;;;2.20;1.00;;;;;;;17.47;38.40;101292.34;5015989;28;20030;-92
2023/02/22 09:28:49;;;;;;;2.10;0.90;;;;;;;17.43;38.05;101276.03;5025886;28;20125;-87
2023/02/22 09:31:14;;;;;;;3.97;1.40;;;;;;;17.46;38.27;101283.66;5024807;28;20037;-88
2023/02/22 09:33:40;;;;;;;4.57;2.60;;;;;;;17.63;38.73;101279.09;5037599;28;20109;-88
2023/02/22 09:36:06;;;;;;;2.30;1.00;;;;;;;17.63;37.75;101277.31;5040098;28;20083;-85
2023/02/22 09:38:32;;;;;;;1.50;1.00;;;;;;;17.71;37.68;101279.44;5035060;28;20025;-86
2023/02/22 09:41:00;;;;;;;1.42;0.80;;;;;;;17.75;37.70;101293.97;5015139;28;20061;-86
2023/02/22 09:43:32;;;;;;;2.03;1.20;;;;;;;17.64;38.16;101278.16;5016104;28;20029;-93
2023/02/22 09:46:10;;;;;;;2.58;1.38;;;;;;;17.70;38.09;101289.06;5021950;28;20100;-89
2023/02/22 09:48:38;;;;;;;2.58;1.02;;;;;;;17.76;38.00;101272.09;5022915;28;20096;-94
2023/02/22 09:51:07;;;;;;;1.77;1.10;;;;;;;17.65;38.50;101259.72;5015678;28;20509;-94
2023/02/22 09:53:40;;;;;;;2.60;1.10;;;;;;;18.00;37.70;101273.03;5030394;28;20586;-84
2023/02/22 09:56:09;;;;;;;1.88;1.15;;;;;;;17.95;36.96;101282.97;5042537;28;20021;-84
2023/02/22 09:58:45;;;;;;;1.55;1.20;;;;;;;17.90;37.52;101264.16;5032228;28;20049;-89
2023/02/22 10:01:31;;;;;;;4.22;1.40;;;;;;;18.13;37.07;101274.78;5007228;28;20030;-86
2023/02/22 10:04:20;;;;;;;1.73;0.95;;;;;;;18.09;37.03;101253.19;5041116;28;20170;-85
2023/02/22 10:07:00;;;;;;;3.97;1.83;;;;;;;18.00;37.14;101269.56;5033226;28;20036;-91
2023/02/22 10:09:26;;;;;;;2.72;1.42;;;;;;;18.05;37.36;101273.53;5027732;28;20041;-90
2023/02/22 10:11:51;;;;;;;1.63;1.02;;;;;;;18.14;37.32;101258.97;5013748;28;20065;-84
2023/02/22 10:14:35;;;;;;;4.97;2.58;;;;;;;18.15;37.24;101262.41;5011791;28;20148;-84
2023/02/22 10:17:16;;;;;;;2.95;1.20;;;;;;;18.10;36.98;101260.13;5008729;28;20648;-83
2023/02/22 10:19:41;;;;;;;3.30;1.30;;;;;;;18.06;37.53;101243.78;5009610;28;20050;-84
2023/02/22 10:22:19;;;;;;;3.35;1.98;;;;;;;17.99;37.31;101226.00;5019744;28;20029;-94
2023/02/22 10:24:56;;;;;;;9.32;2.63;;;;;;;18.01;37.03;101239.84;5027436;28;20021;-94
2023/02/22 10:27:33;;;;;;;2.88;1.55;;;;;;;18.03;37.10;101236.16;5026791;28;20033;-93
2023/02/22 10:30:07;;;;;;;1.83;1.38;;;;;;;18.03;37.54;101203.91;5043810;28;20436;-85
2023/02/22 10:32:44;;;;;;;3.17;1.75;;;;;;;18.27;37.59;101225.72;5024585;28;20470;-85
2023/02/22 10:35:28;;;;;;;9.88;2.08;;;;;;;18.45;36.54;101228.78;5028857;28;20050;-83
2023/02/22 10:38:22;;;;;;;3.83;1.50;;;;;;;18.44;36.90;101214.03;5031981;28;20025;-84
2023/02/22 10:40:58;;;;;;;2.25;1.45;;;;;;;18.31;36.77;101205.38;5020101;28;20079;-83
2023/02/22 10:43:24;;;;;;;2.95;1.58;;;;;;;18.37;37.02;101194.44;5042261;28;20084;-89
2023/02/22 10:45:54;;;;;;;3.20;1.38;;;;;;;18.38;36.87;101185.63;5033032;28;20041;-83
2023/02/22 10:48:20;;;;;;;3.08;1.95;;;;;;;18.50;36.92;101204.91;5016447;28;20033;-93
2023/02/22 10:50:46;;;;;;;5.53;1.20;;;;;;;18.22;36.29;101182.47;5013042;28;20420;-84
2023/02/22 10:53:11;;;;;;;2.00;1.35;;;;;;;18.21;36.56;101188.66;5014515;28;20112;-91
2023/02/22 10:56:12;;;;;;;4.43;2.47;;;;;;;18.25;36.50;101200.59;5031168;28;20037;-82
2023/02/22 10:59:01;;;;;;;1.92;1.13;;;;;;;18.29;36.28;101195.03;5014879;28;20133;-82
2023/02/22 11:01:32;;;;;;;1.30;1.10;;;;;;;18.36;36.14;101198.03;5030151;28;20040;-84
2023/02/22 11:04:11;;;;;;;0.80;0.60;;;;;;;18.38;36.21;101182.19;5030107;28;20436;-81
2023/02/22 11:06:37;;;;;;;2.15;1.27;;;;;;;18.52;35.82;101189.88;5038595;28;20044;-82
2023/02/22 11:09:11;;;;;;;1.88;1.27;;;;;;;18.50;36.03;101182.16;5029244;28;20022;-82
2023/02/22 11:11:39;;;;;;;1.77;1.02;;;;;;;18.50;35.67;101153.31;5014462;28;20080;-88
2023/02/22 11:14:05;;;;;;;1.42;1.00;;;;;;;18.70;35.98;101165.00;5013234;28;20120;-84
2023/02/22 11:16:33;;;;;;;2.17;1.10;;;;;;;18.57;36.06;101133.56;5028462;28;20030;-84
2023/02/22 11:19:25;;;;;;;2.28;1.25;;;;;;;18.84;35.23;101166.56;5038577;28;20072;-83
2023/02/22 11:21:58;;;;;;;2.10;1.13;;;;;;;18.77;35.56;101157.47;5009385;28;20029;-80
2023/02/22 11:24:25;;;;;;;1.92;1.20;;;;;;;18.95;35.28;101150.03;5028956;28;20038;-81
2023/02/22 11:26:58;;;;;;;1.98;1.30;;;;;;;18.96;34.72;101149.91;5024167;28;20029;-88
2023/02/22 11:29:25;;;;;;;3.83;1.50;;;;;;;18.90;34.37;101150.38;5016707;28;20041;-91
2023/02/22 11:31:50;;;;;;;4.18;1.58;;;;;;;18.72;35.06;101115.06;5038732;28;20097;-88
2023/02/22 11:34:27;;;;;;;2.90;1.73;;;;;;;18.96;34.03;101139.41;5034278;28;20524;-87